Sodak Park, South Dakota
Current Conditions -  °F | °C
As of 2:34 AM on Tuesday 27 Jan 2015 (Local Time) from KVVV Reporting Station
Haze Haze  
Wind Chill: 28°   Ceiling: Unl
Heat Index: 28°   Visibility: 5mi
Dew Point: 27°   Wind: 0mph
Humidity: 93%   Direction: NA
Pressure: 30.06"   Gusts: NA
Location:  45.4152°N, 96.8664°W
Report Text: KVVV 270834Z AUTO 00000KT 5SM BR CLR M02/M03 A3006 RMK AO2
Loading
Personal Weather Stations






























Interactive Weather Map New forecast layout! Learn more

10-Day Weather Forecast

Advertisements
Track Severe Weather on mobile